sensor_id;sensor_type;location;lat;lon;timestamp;pressure;altitude;pressure_sealevel;temperature;humidity
57068;BME280;43391;47.448;18.904;2023-12-20T00:00:52;99800.03;;;-2.16;100.00
57068;BME280;43391;47.448;18.904;2023-12-20T00:03:18;99810.19;;;-2.20;100.00
57068;BME280;43391;47.448;18.904;2023-12-20T00:05:43;99793.22;;;-2.20;100.00
57068;BME280;43391;47.448;18.904;2023-12-20T00:08:08;99800.84;;;-2.20;100.00
57068;BME280;43391;47.448;18.904;2023-12-20T00:10:33;99804.22;;;-2.24;100.00
57068;BME280;43391;47.448;18.904;2023-12-20T00:12:59;99794.91;;;-2.23;100.00
57068;BME280;43391;47.448;18.904;2023-12-20T00:15:24;99796.59;;;-2.25;100.00
57068;BME280;43391;47.448;18.904;2023-12-20T00:17:49;99794.06;;;-2.25;100.00
57068;BME280;43391;47.448;18.904;2023-12-20T00:20:14;99778.78;;;-2.27;100.00
57068;BME280;43391;47.448;18.904;2023-12-20T00:22:39;99781.34;;;-2.25;100.00
57068;BME280;43391;47.448;18.904;2023-12-20T00:25:05;99773.69;;;-2.25;100.00
57068;BME280;43391;47.448;18.904;2023-12-20T00:27:30;99780.47;;;-2.31;100.00
57068;BME280;43391;47.448;18.904;2023-12-20T00:29:55;99761.81;;;-2.28;100.00
57068;BME280;43391;47.448;18.904;2023-12-20T00:32:20;99766.03;;;-2.29;100.00
57068;BME280;43391;47.448;18.904;2023-12-20T00:34:45;99759.31;;;-2.22;100.00
57068;BME280;43391;47.448;18.904;2023-12-20T00:37:11;99758.44;;;-2.24;100.00
57068;BME280;43391;47.448;18.904;2023-12-20T00:39:36;99751.66;;;-2.28;100.00
57068;BME280;43391;47.448;18.904;2023-12-20T00:42:01;99746.53;;;-2.27;100.00
57068;BME280;43391;47.448;18.904;2023-12-20T00:44:26;99744.88;;;-2.29;100.00
57068;BME280;43391;47.448;18.904;2023-12-20T00:46:51;99749.94;;;-2.32;100.00
57068;BME280;43391;47.448;18.904;2023-12-20T00:49:16;99751.63;;;-2.30;100.00
57068;BME280;43391;47.448;18.904;2023-12-20T00:51:42;99739.75;;;-2.34;100.00
57068;BME280;43391;47.448;18.904;2023-12-20T00:54:07;99729.56;;;-2.37;100.00
57068;BME280;43391;47.448;18.904;2023-12-20T00:56:32;99734.63;;;-2.40;100.00
57068;BME280;43391;47.448;18.904;2023-12-20T00:58:58;99721.06;;;-2.41;100.00
57068;BME280;43391;47.448;18.904;2023-12-20T01:01:23;99717.69;;;-2.36;100.00
57068;BME280;43391;47.448;18.904;2023-12-20T01:03:48;99716.84;;;-2.35;100.00
57068;BME280;43391;47.448;18.904;2023-12-20T01:06:16;99710.94;;;-2.30;100.00
57068;BME280;43391;47.448;18.904;2023-12-20T01:08:41;99713.50;;;-2.30;100.00
57068;BME280;43391;47.448;18.904;2023-12-20T01:11:06;99700.78;;;-2.27;100.00
57068;BME280;43391;47.448;18.904;2023-12-20T01:13:31;99698.22;;;-2.31;100.00
57068;BME280;43391;47.448;18.904;2023-12-20T01:15:56;99699.91;;;-2.33;100.00
57068;BME280;43391;47.448;18.904;2023-12-20T01:18:22;99695.66;;;-2.33;100.00
57068;BME280;43391;47.448;18.904;2023-12-20T01:20:47;99691.44;;;-2.31;100.00
57068;BME280;43391;47.448;18.904;2023-12-20T01:23:12;99683.81;;;-2.32;100.00
57068;BME280;43391;47.448;18.904;2023-12-20T01:25:37;99677.03;;;-2.33;100.00
57068;BME280;43391;47.448;18.904;2023-12-20T01:28:02;99675.34;;;-2.34;100.00
57068;BME280;43391;47.448;18.904;2023-12-20T01:30:28;99677.03;;;-2.33;100.00
57068;BME280;43391;47.448;18.904;2023-12-20T01:32:53;99671.09;;;-2.37;100.00
57068;BME280;43391;47.448;18.904;2023-12-20T01:35:19;99665.16;;;-2.37;100.00
57068;BME280;43391;47.448;18.904;2023-12-20T01:37:44;99669.38;;;-2.41;100.00
57068;BME280;43391;47.448;18.904;2023-12-20T01:40:09;99659.22;;;-2.35;100.00
57068;BME280;43391;47.448;18.904;2023-12-20T01:42:35;99662.63;;;-2.30;100.00
57068;BME280;43391;47.448;18.904;2023-12-20T01:45:00;99652.47;;;-2.28;100.00
57068;BME280;43391;47.448;18.904;2023-12-20T01:47:25;99653.31;;;-2.29;100.00
57068;BME280;43391;47.448;18.904;2023-12-20T01:49:52;99644.81;;;-2.33;100.00
57068;BME280;43391;47.448;18.904;2023-12-20T01:52:17;99646.53;;;-2.33;100.00
57068;BME280;43391;47.448;18.904;2023-12-20T01:54:42;99642.25;;;-2.33;100.00
57068;BME280;43391;47.448;18.904;2023-12-20T01:57:07;99634.66;;;-2.30;100.00
57068;BME280;43391;47.448;18.904;2023-12-20T01:59:33;99622.78;;;-2.31;100.00
57068;BME280;43391;47.448;18.904;2023-12-20T02:01:59;99617.69;;;-2.35;100.00
57068;BME280;43391;47.448;18.904;2023-12-20T02:04:24;99616.00;;;-2.32;100.00
57068;BME280;43391;47.448;18.904;2023-12-20T02:06:50;99615.16;;;-2.28;100.00
57068;BME280;43391;47.448;18.904;2023-12-20T02:09:17;99610.91;;;-2.29;100.00
57068;BME280;43391;47.448;18.904;2023-12-20T02:11:43;99609.19;;;-2.33;100.00
57068;BME280;43391;47.448;18.904;2023-12-20T02:14:08;99604.97;;;-2.34;100.00
57068;BME280;43391;47.448;18.904;2023-12-20T02:16:33;99597.34;;;-2.32;100.00
57068;BME280;43391;47.448;18.904;2023-12-20T02:18:59;99599.88;;;-2.40;100.00
57068;BME280;43391;47.448;18.904;2023-12-20T02:21:25;99599.00;;;-2.41;100.00
57068;BME280;43391;47.448;18.904;2023-12-20T02:23:50;99591.41;;;-2.37;100.00
57068;BME280;43391;47.448;18.904;2023-12-20T02:26:15;99596.47;;;-2.41;100.00
57068;BME280;43391;47.448;18.904;2023-12-20T02:28:41;99590.53;;;-2.43;100.00
57068;BME280;43391;47.448;18.904;2023-12-20T02:31:06;99593.09;;;-2.39;100.00
57068;BME280;43391;47.448;18.904;2023-12-20T02:33:31;99593.94;;;-2.39;100.00
57068;BME280;43391;47.448;18.904;2023-12-20T02:35:56;99599.03;;;-2.36;100.00
57068;BME280;43391;47.448;18.904;2023-12-20T02:38:22;99593.94;;;-2.39;100.00
57068;BME280;43391;47.448;18.904;2023-12-20T02:40:47;99582.06;;;-2.45;100.00
57068;BME280;43391;47.448;18.904;2023-12-20T02:43:12;99576.13;;;-2.50;100.00
57068;BME280;43391;47.448;18.904;2023-12-20T02:45:37;99568.47;;;-2.48;100.00
57068;BME280;43391;47.448;18.904;2023-12-20T02:48:03;99562.56;;;-2.46;100.00
57068;BME280;43391;47.448;18.904;2023-12-20T02:50:28;99555.78;;;-2.48;100.00
57068;BME280;43391;47.448;18.904;2023-12-20T02:52:53;99556.63;;;-2.52;100.00
57068;BME280;43391;47.448;18.904;2023-12-20T02:55:18;99553.22;;;-2.53;100.00
57068;BME280;43391;47.448;18.904;2023-12-20T02:57:43;99551.56;;;-2.52;100.00
57068;BME280;43391;47.448;18.904;2023-12-20T03:00:09;99544.75;;;-2.58;100.00
57068;BME280;43391;47.448;18.904;2023-12-20T03:02:35;99548.13;;;-2.62;100.00
57068;BME280;43391;47.448;18.904;2023-12-20T03:05:01;99549.84;;;-2.57;100.00
57068;BME280;43391;47.448;18.904;2023-12-20T03:07:26;99546.44;;;-2.57;100.00
57068;BME280;43391;47.448;18.904;2023-12-20T03:09:51;99548.97;;;-2.57;100.00
57068;BME280;43391;47.448;18.904;2023-12-20T03:12:17;99545.59;;;-2.56;100.00
57068;BME280;43391;47.448;18.904;2023-12-20T03:14:43;99551.50;;;-2.59;100.00
57068;BME280;43391;47.448;18.904;2023-12-20T03:17:08;99549.84;;;-2.58;100.00
57068;BME280;43391;47.448;18.904;2023-12-20T03:19:33;99551.53;;;-2.56;100.00
57068;BME280;43391;47.448;18.904;2023-12-20T03:21:58;99553.22;;;-2.59;100.00
57068;BME280;43391;47.448;18.904;2023-12-20T03:24:25;99554.06;;;-2.59;100.00
57068;BME280;43391;47.448;18.904;2023-12-20T03:26:51;99545.56;;;-2.67;100.00
57068;BME280;43391;47.448;18.904;2023-12-20T03:29:16;99543.00;;;-2.70;100.00
57068;BME280;43391;47.448;18.904;2023-12-20T03:31:41;99552.34;;;-2.71;100.00
57068;BME280;43391;47.448;18.904;2023-12-20T03:34:06;99559.97;;;-2.72;100.00
57068;BME280;43391;47.448;18.904;2023-12-20T03:36:31;99564.22;;;-2.68;100.00
57068;BME280;43391;47.448;18.904;2023-12-20T03:38:57;99557.44;;;-2.66;100.00
57068;BME280;43391;47.448;18.904;2023-12-20T03:41:22;99555.72;;;-2.64;100.00
57068;BME280;43391;47.448;18.904;2023-12-20T03:43:47;99558.31;;;-2.59;100.00
57068;BME280;43391;47.448;18.904;2023-12-20T03:46:12;99548.13;;;-2.55;100.00
57068;BME280;43391;47.448;18.904;2023-12-20T03:48:37;99540.53;;;-2.50;100.00
57068;BME280;43391;47.448;18.904;2023-12-20T03:51:02;99544.78;;;-2.50;100.00
57068;BME280;43391;47.448;18.904;2023-12-20T03:53:28;99538.00;;;-2.50;100.00
57068;BME280;43391;47.448;18.904;2023-12-20T03:55:53;99531.19;;;-2.56;100.00
57068;BME280;43391;47.448;18.904;2023-12-20T03:58:18;99531.22;;;-2.54;100.00
57068;BME280;43391;47.448;18.904;2023-12-20T04:00:43;99523.59;;;-2.54;100.00
57068;BME280;43391;47.448;18.904;2023-12-20T04:03:09;99526.97;;;-2.57;100.00
57068;BME280;43391;47.448;18.904;2023-12-20T04:05:34;99526.97;;;-2.55;100.00
57068;BME280;43391;47.448;18.904;2023-12-20T04:08:00;99523.59;;;-2.48;100.00
57068;BME280;43391;47.448;18.904;2023-12-20T04:10:26;99519.38;;;-2.47;100.00
57068;BME280;43391;47.448;18.904;2023-12-20T04:12:51;99532.06;;;-2.46;100.00
57068;BME280;43391;47.448;18.904;2023-12-20T04:15:16;99529.50;;;-2.46;100.00
57068;BME280;43391;47.448;18.904;2023-12-20T04:17:41;99521.88;;;-2.46;100.00
57068;BME280;43391;47.448;18.904;2023-12-20T04:20:07;99519.34;;;-2.55;100.00
57068;BME280;43391;47.448;18.904;2023-12-20T04:22:32;99523.56;;;-2.56;100.00
57068;BME280;43391;47.448;18.904;2023-12-20T04:24:57;99519.31;;;-2.54;100.00
57068;BME280;43391;47.448;18.904;2023-12-20T04:27:22;99516.81;;;-2.55;100.00
57068;BME280;43391;47.448;18.904;2023-12-20T04:29:48;99516.78;;;-2.54;100.00
57068;BME280;43391;47.448;18.904;2023-12-20T04:32:13;99511.72;;;-2.50;100.00
57068;BME280;43391;47.448;18.904;2023-12-20T04:34:38;99511.72;;;-2.49;100.00
57068;BME280;43391;47.448;18.904;2023-12-20T04:37:03;99501.53;;;-2.52;100.00
57068;BME280;43391;47.448;18.904;2023-12-20T04:39:28;99493.06;;;-2.48;100.00
57068;BME280;43391;47.448;18.904;2023-12-20T04:41:54;99493.06;;;-2.54;100.00
57068;BME280;43391;47.448;18.904;2023-12-20T04:44:19;99489.69;;;-2.51;100.00
57068;BME280;43391;47.448;18.904;2023-12-20T04:46:44;99488.00;;;-2.48;100.00
57068;BME280;43391;47.448;18.904;2023-12-20T04:49:09;99477.81;;;-2.51;100.00
57068;BME280;43391;47.448;18.904;2023-12-20T04:51:35;99473.56;;;-2.52;100.00
57068;BME280;43391;47.448;18.904;2023-12-20T04:54:00;99460.88;;;-2.58;100.00
57068;BME280;43391;47.448;18.904;2023-12-20T04:56:26;99460.88;;;-2.52;100.00
57068;BME280;43391;47.448;18.904;2023-12-20T04:58:51;99454.09;;;-2.55;100.00
57068;BME280;43391;47.448;18.904;2023-12-20T05:01:16;99448.16;;;-2.58;100.00
57068;BME280;43391;47.448;18.904;2023-12-20T05:03:42;99454.06;;;-2.70;100.00
57068;BME280;43391;47.448;18.904;2023-12-20T05:06:07;99467.59;;;-2.81;100.00
57068;BME280;43391;47.448;18.904;2023-12-20T05:08:32;99439.69;;;-2.68;100.00
57068;BME280;43391;47.448;18.904;2023-12-20T05:10:57;99437.97;;;-2.68;100.00
57068;BME280;43391;47.448;18.904;2023-12-20T05:13:22;99429.50;;;-2.73;100.00
57068;BME280;43391;47.448;18.904;2023-12-20T05:15:48;99432.03;;;-2.79;100.00
57068;BME280;43391;47.448;18.904;2023-12-20T05:18:13;99435.44;;;-2.78;100.00
57068;BME280;43391;47.448;18.904;2023-12-20T05:20:38;99444.72;;;-2.82;100.00
57068;BME280;43391;47.448;18.904;2023-12-20T05:23:04;99448.16;;;-2.78;100.00
57068;BME280;43391;47.448;18.904;2023-12-20T05:25:29;99456.59;;;-2.84;100.00
57068;BME280;43391;47.448;18.904;2023-12-20T05:27:54;99475.19;;;-2.90;100.00
57068;BME280;43391;47.448;18.904;2023-12-20T05:30:21;99471.84;;;-2.84;100.00
57068;BME280;43391;47.448;18.904;2023-12-20T05:32:46;99482.84;;;-2.87;100.00
57068;BME280;43391;47.448;18.904;2023-12-20T05:35:11;99487.91;;;-2.87;100.00
57068;BME280;43391;47.448;18.904;2023-12-20T05:37:36;99483.69;;;-2.89;100.00
57068;BME280;43391;47.448;18.904;2023-12-20T05:40:02;99476.06;;;-2.89;100.00
57068;BME280;43391;47.448;18.904;2023-12-20T05:42:27;99465.88;;;-2.91;100.00
57068;BME280;43391;47.448;18.904;2023-12-20T05:44:52;99454.88;;;-2.87;100.00
57068;BME280;43391;47.448;18.904;2023-12-20T05:47:18;99441.34;;;-2.90;100.00
57068;BME280;43391;47.448;18.904;2023-12-20T05:49:43;99440.50;;;-2.88;100.00
57068;BME280;43391;47.448;18.904;2023-12-20T05:52:09;99447.28;;;-2.84;100.00
57068;BME280;43391;47.448;18.904;2023-12-20T05:54:34;99448.97;;;-2.84;100.00
57068;BME280;43391;47.448;18.904;2023-12-20T05:56:59;99443.03;;;-2.83;100.00
57068;BME280;43391;47.448;18.904;2023-12-20T05:59:25;99434.56;;;-2.93;100.00
57068;BME280;43391;47.448;18.904;2023-12-20T06:01:50;99438.78;;;-2.95;100.00
57068;BME280;43391;47.448;18.904;2023-12-20T06:04:15;99432.84;;;-2.91;100.00
57068;BME280;43391;47.448;18.904;2023-12-20T06:06:43;99423.56;;;-2.90;100.00
57068;BME280;43391;47.448;18.904;2023-12-20T06:09:09;99419.31;;;-2.90;100.00
57068;BME280;43391;47.448;18.904;2023-12-20T06:11:34;99417.63;;;-2.89;100.00
57068;BME280;43391;47.448;18.904;2023-12-20T06:14:00;99414.22;;;-2.90;100.00
57068;BME280;43391;47.448;18.904;2023-12-20T06:16:25;99402.38;;;-2.97;100.00
57068;BME280;43391;47.448;18.904;2023-12-20T06:18:50;99411.69;;;-2.96;100.00
57068;BME280;43391;47.448;18.904;2023-12-20T06:21:15;99409.16;;;-2.99;100.00
57068;BME280;43391;47.448;18.904;2023-12-20T06:23:41;99419.28;;;-3.02;100.00
57068;BME280;43391;47.448;18.904;2023-12-20T06:26:06;99413.38;;;-3.00;100.00
57068;BME280;43391;47.448;18.904;2023-12-20T06:28:31;99423.53;;;-3.00;100.00
57068;BME280;43391;47.448;18.904;2023-12-20T06:30:56;99421.84;;;-2.99;100.00
57068;BME280;43391;47.448;18.904;2023-12-20T06:33:22;99426.94;;;-2.93;100.00
57068;BME280;43391;47.448;18.904;2023-12-20T06:35:48;99434.53;;;-2.90;100.00
57068;BME280;43391;47.448;18.904;2023-12-20T06:38:13;99450.66;;;-2.83;100.00
57068;BME280;43391;47.448;18.904;2023-12-20T06:40:38;99447.28;;;-2.84;100.00
57068;BME280;43391;47.448;18.904;2023-12-20T06:43:03;99454.03;;;-2.87;100.00
57068;BME280;43391;47.448;18.904;2023-12-20T06:45:28;99476.06;;;-2.94;100.00
57068;BME280;43391;47.448;18.904;2023-12-20T06:47:54;99469.22;;;-3.08;100.00
57068;BME280;43391;47.448;18.904;2023-12-20T06:50:19;99473.38;;;-3.28;100.00
57068;BME280;43391;47.448;18.904;2023-12-20T06:52:45;99461.53;;;-3.34;100.00
57068;BME280;43391;47.448;18.904;2023-12-20T06:55:10;99461.53;;;-3.29;100.00
57068;BME280;43391;47.448;18.904;2023-12-20T06:57:35;99456.47;;;-3.25;100.00
57068;BME280;43391;47.448;18.904;2023-12-20T07:00:01;99462.44;;;-3.16;100.00
57068;BME280;43391;47.448;18.904;2023-12-20T07:02:27;99467.56;;;-3.05;100.00
57068;BME280;43391;47.448;18.904;2023-12-20T07:04:55;99466.69;;;-3.01;100.00
57068;BME280;43391;47.448;18.904;2023-12-20T07:07:20;99461.63;;;-2.95;100.00
57068;BME280;43391;47.448;18.904;2023-12-20T07:09:46;99465.88;;;-2.99;100.00
57068;BME280;43391;47.448;18.904;2023-12-20T07:12:11;99466.72;;;-3.04;100.00
57068;BME280;43391;47.448;18.904;2023-12-20T07:14:36;99452.31;;;-3.05;100.00
57068;BME280;43391;47.448;18.904;2023-12-20T07:17:01;99458.25;;;-3.08;100.00
57068;BME280;43391;47.448;18.904;2023-12-20T07:19:27;99454.00;;;-3.12;100.00
57068;BME280;43391;47.448;18.904;2023-12-20T07:21:53;99459.91;;;-3.12;100.00
57068;BME280;43391;47.448;18.904;2023-12-20T07:24:18;99459.09;;;-3.11;100.00
57068;BME280;43391;47.448;18.904;2023-12-20T07:26:43;99460.78;;;-3.03;100.00
57068;BME280;43391;47.448;18.904;2023-12-20T07:29:08;99456.53;;;-3.08;100.00
57068;BME280;43391;47.448;18.904;2023-12-20T07:31:34;99455.72;;;-2.97;100.00
57068;BME280;43391;47.448;18.904;2023-12-20T07:33:59;99456.56;;;-2.94;100.00
57068;BME280;43391;47.448;18.904;2023-12-20T07:36:25;99464.22;;;-2.89;100.00
57068;BME280;43391;47.448;18.904;2023-12-20T07:38:50;99459.97;;;-2.87;100.00
57068;BME280;43391;47.448;18.904;2023-12-20T07:41:15;99458.28;;;-2.85;100.00
57068;BME280;43391;47.448;18.904;2023-12-20T07:43:46;99461.69;;;-2.81;100.00
57068;BME280;43391;47.448;18.904;2023-12-20T07:46:11;99455.75;;;-2.78;100.00
57068;BME280;43391;47.448;18.904;2023-12-20T07:48:36;99460.84;;;-2.72;100.00
57068;BME280;43391;47.448;18.904;2023-12-20T07:51:02;99449.81;;;-2.74;100.00
57068;BME280;43391;47.448;18.904;2023-12-20T07:53:27;99458.31;;;-2.66;100.00
57068;BME280;43391;47.448;18.904;2023-12-20T07:55:53;99457.50;;;-2.60;100.00
57068;BME280;43391;47.448;18.904;2023-12-20T07:58:18;99451.56;;;-2.51;100.00
57068;BME280;43391;47.448;18.904;2023-12-20T08:00:43;99449.00;;;-2.53;100.00
57068;BME280;43391;47.448;18.904;2023-12-20T08:03:09;99444.78;;;-2.56;100.00
57068;BME280;43391;47.448;18.904;2023-12-20T08:05:34;99440.53;;;-2.54;100.00
57068;BME280;43391;47.448;18.904;2023-12-20T08:07:59;99437.97;;;-2.54;100.00
57068;BME280;43391;47.448;18.904;2023-12-20T08:10:24;99436.28;;;-2.55;100.00
57068;BME280;43391;47.448;18.904;2023-12-20T08:12:50;99448.19;;;-2.55;100.00
57068;BME280;43391;47.448;18.904;2023-12-20T08:15:15;99443.94;;;-2.47;100.00
57068;BME280;43391;47.448;18.904;2023-12-20T08:17:40;99440.53;;;-2.52;100.00
57068;BME280;43391;47.448;18.904;2023-12-20T08:20:06;99438.84;;;-2.53;100.00
57068;BME280;43391;47.448;18.904;2023-12-20T08:22:31;99440.56;;;-2.55;100.00
57068;BME280;43391;47.448;18.904;2023-12-20T08:24:56;99443.94;;;-2.44;100.00
57068;BME280;43391;47.448;18.904;2023-12-20T08:27:22;99449.03;;;-2.42;100.00
57068;BME280;43391;47.448;18.904;2023-12-20T08:29:47;99456.66;;;-2.45;100.00
57068;BME280;43391;47.448;18.904;2023-12-20T08:32:14;99450.72;;;-2.39;100.00
57068;BME280;43391;47.448;18.904;2023-12-20T08:34:39;99439.69;;;-2.26;100.00
57068;BME280;43391;47.448;18.904;2023-12-20T08:37:05;99441.38;;;-2.25;100.00
57068;BME280;43391;47.448;18.904;2023-12-20T08:39:30;99450.72;;;-2.27;100.00
57068;BME280;43391;47.448;18.904;2023-12-20T08:41:55;99443.94;;;-2.20;100.00
57068;BME280;43391;47.448;18.904;2023-12-20T08:44:20;99450.69;;;-2.16;100.00
57068;BME280;43391;47.448;18.904;2023-12-20T08:46:47;99444.75;;;-2.10;100.00
57068;BME280;43391;47.448;18.904;2023-12-20T08:49:13;99451.56;;;-2.06;100.00
57068;BME280;43391;47.448;18.904;2023-12-20T08:51:38;99455.75;;;-2.01;100.00
57068;BME280;43391;47.448;18.904;2023-12-20T08:54:06;99452.38;;;-1.92;100.00
57068;BME280;43391;47.448;18.904;2023-12-20T08:56:32;99449.81;;;-1.81;100.00
57068;BME280;43391;47.448;18.904;2023-12-20T08:58:58;99454.03;;;-1.77;100.00
57068;BME280;43391;47.448;18.904;2023-12-20T09:01:23;99455.75;;;-1.71;100.00
57068;BME280;43391;47.448;18.904;2023-12-20T09:03:49;99451.44;;;-1.63;100.00
57068;BME280;43391;47.448;18.904;2023-12-20T09:06:14;99455.69;;;-1.55;100.00
57068;BME280;43391;47.448;18.904;2023-12-20T09:08:39;99458.19;;;-1.44;100.00
57068;BME280;43391;47.448;18.904;2023-12-20T09:11:04;99449.72;;;-1.50;100.00
57068;BME280;43391;47.448;18.904;2023-12-20T09:13:29;99448.84;;;-1.49;100.00
57068;BME280;43391;47.448;18.904;2023-12-20T09:15:56;99448.84;;;-1.47;100.00
57068;BME280;43391;47.448;18.904;2023-12-20T09:18:22;99449.69;;;-1.39;100.00
57068;BME280;43391;47.448;18.904;2023-12-20T09:20:47;99445.41;;;-1.29;100.00
57068;BME280;43391;47.448;18.904;2023-12-20T09:23:13;99446.19;;;-1.16;100.00
57068;BME280;43391;47.448;18.904;2023-12-20T09:25:38;99437.63;;;-1.04;100.00
57068;BME280;43391;47.448;18.904;2023-12-20T09:28:03;99429.84;;;-0.81;100.00
57068;BME280;43391;47.448;18.904;2023-12-20T09:30:28;99419.50;;;-0.57;100.00
57068;BME280;43391;47.448;18.904;2023-12-20T09:32:54;99411.81;;;-0.52;100.00
57068;BME280;43391;47.448;18.904;2023-12-20T09:35:19;99414.09;;;-0.24;100.00
57068;BME280;43391;47.448;18.904;2023-12-20T09:37:45;99404.44;;;0.09;100.00
57068;BME280;43391;47.448;18.904;2023-12-20T09:40:12;99400.97;;;0.16;100.00
57068;BME280;43391;47.448;18.904;2023-12-20T09:43:01;99401.69;;;0.28;100.00
57068;BME280;43391;47.448;18.904;2023-12-20T09:45:23;99400.50;;;0.57;100.00
57068;BME280;43391;47.448;18.904;2023-12-20T09:47:53;99395.41;;;0.55;100.00
57068;BME280;43391;47.448;18.904;2023-12-20T09:50:19;99388.41;;;0.71;100.00
57068;BME280;43391;47.448;18.904;2023-12-20T09:52:45;99394.94;;;0.89;100.00
57068;BME280;43391;47.448;18.904;2023-12-20T09:55:12;99389.56;;;1.10;100.00
57068;BME280;43391;47.448;18.904;2023-12-20T09:57:37;99390.97;;;1.29;100.00
57068;BME280;43391;47.448;18.904;2023-12-20T10:00:04;99388.09;;;1.48;100.00
57068;BME280;43391;47.448;18.904;2023-12-20T10:02:31;99397.31;;;1.58;100.00
57068;BME280;43391;47.448;18.904;2023-12-20T10:04:57;99392.06;;;1.68;100.00
57068;BME280;43391;47.448;18.904;2023-12-20T10:07:22;99384.97;;;1.82;100.00
57068;BME280;43391;47.448;18.904;2023-12-20T10:09:48;99380.28;;;2.05;100.00
57068;BME280;43391;47.448;18.904;2023-12-20T10:12:13;99377.19;;;1.89;100.00
57068;BME280;43391;47.448;18.904;2023-12-20T10:14:39;99386.81;;;1.76;100.00
57068;BME280;43391;47.448;18.904;2023-12-20T10:17:04;99362.94;;;1.73;100.00
57068;BME280;43391;47.448;18.904;2023-12-20T10:19:30;99359.34;;;1.84;100.00
57068;BME280;43391;47.448;18.904;2023-12-20T10:21:55;99363.50;;;1.90;100.00
57068;BME280;43391;47.448;18.904;2023-12-20T10:24:21;99361.81;;;1.90;100.00
57068;BME280;43391;47.448;18.904;2023-12-20T10:26:46;99355.25;;;2.21;100.00
57068;BME280;43391;47.448;18.904;2023-12-20T10:29:11;99361.78;;;2.34;100.00
57068;BME280;43391;47.448;18.904;2023-12-20T10:31:36;99348.63;;;2.51;100.00
57068;BME280;43391;47.448;18.904;2023-12-20T10:34:03;99347.41;;;2.68;100.00
57068;BME280;43391;47.448;18.904;2023-12-20T10:36:30;99346.75;;;2.60;100.00
57068;BME280;43391;47.448;18.904;2023-12-20T10:38:56;99353.00;;;2.46;100.00
57068;BME280;43391;47.448;18.904;2023-12-20T10:43:51;99345.13;;;2.95;100.00
57068;BME280;43391;47.448;18.904;2023-12-20T10:46:17;99342.91;;;3.16;100.00
57068;BME280;43391;47.448;18.904;2023-12-20T10:48:43;99333.94;;;3.34;100.00
57068;BME280;43391;47.448;18.904;2023-12-20T10:51:09;99328.78;;;3.34;100.00
57068;BME280;43391;47.448;18.904;2023-12-20T10:53:35;99333.53;;;3.50;100.00
57068;BME280;43391;47.448;18.904;2023-12-20T10:56:01;99334.53;;;3.45;100.00
57068;BME280;43391;47.448;18.904;2023-12-20T10:58:27;99341.53;;;3.39;100.00
57068;BME280;43391;47.448;18.904;2023-12-20T11:00:57;99335.28;;;3.14;100.00
57068;BME280;43391;47.448;18.904;2023-12-20T11:03:24;99328.97;;;3.26;100.00
57068;BME280;43391;47.448;18.904;2023-12-20T11:05:58;99316.31;;;3.20;100.00
57068;BME280;43391;47.448;18.904;2023-12-20T11:13:26;99303.88;;;3.39;100.00
57068;BME280;43391;47.448;18.904;2023-12-20T11:15:53;99297.50;;;3.54;100.00
57068;BME280;43391;47.448;18.904;2023-12-20T11:18:19;99288.44;;;3.41;100.00
57068;BME280;43391;47.448;18.904;2023-12-20T11:20:44;99288.00;;;3.25;100.00
57068;BME280;43391;47.448;18.904;2023-12-20T11:23:09;99264.03;;;3.26;100.00
57068;BME280;43391;47.448;18.904;2023-12-20T11:25:56;99278.59;;;3.24;100.00
57068;BME280;43391;47.448;18.904;2023-12-20T11:28:20;99260.53;;;3.28;100.00
57068;BME280;43391;47.448;18.904;2023-12-20T11:30:46;99248.31;;;3.38;100.00
57068;BME280;43391;47.448;18.904;2023-12-20T11:33:15;99256.44;;;3.54;100.00
57068;BME280;43391;47.448;18.904;2023-12-20T11:35:41;99264.31;;;4.10;100.00
57068;BME280;43391;47.448;18.904;2023-12-20T11:38:09;99263.97;;;4.78;100.00
57068;BME280;43391;47.448;18.904;2023-12-20T11:40:35;99263.97;;;5.05;100.00
57068;BME280;43391;47.448;18.904;2023-12-20T11:43:00;99262.94;;;5.11;100.00
57068;BME280;43391;47.448;18.904;2023-12-20T11:45:26;99255.63;;;5.75;100.00
57068;BME280;43391;47.448;18.904;2023-12-20T11:47:52;99247.78;;;6.02;100.00
57068;BME280;43391;47.448;18.904;2023-12-20T11:50:20;99252.34;;;5.45;100.00
57068;BME280;43391;47.448;18.904;2023-12-20T11:52:46;99243.84;;;4.91;100.00
57068;BME280;43391;47.448;18.904;2023-12-20T11:55:11;99238.91;;;4.58;100.00
57068;BME280;43391;47.448;18.904;2023-12-20T11:57:37;99249.38;;;5.05;100.00
57068;BME280;43391;47.448;18.904;2023-12-20T12:00:03;99241.84;;;6.46;100.00
57068;BME280;43391;47.448;18.904;2023-12-20T12:02:28;99238.44;;;8.47;100.00
57068;BME280;43391;47.448;18.904;2023-12-20T12:04:54;99242.53;;;8.70;100.00
57068;BME280;43391;47.448;18.904;2023-12-20T12:07:20;99235.34;;;10.60;100.00
57068;BME280;43391;47.448;18.904;2023-12-20T12:09:45;99225.22;;;11.46;84.79
57068;BME280;43391;47.448;18.904;2023-12-20T12:12:11;99240.44;;;11.23;82.97
57068;BME280;43391;47.448;18.904;2023-12-20T12:14:37;99220.78;;;9.93;91.12
57068;BME280;43391;47.448;18.904;2023-12-20T12:17:03;99210.31;;;7.64;100.00
57068;BME280;43391;47.448;18.904;2023-12-20T12:19:29;99217.91;;;6.64;100.00
57068;BME280;43391;47.448;18.904;2023-12-20T12:22:04;99223.47;;;6.09;100.00
57068;BME280;43391;47.448;18.904;2023-12-20T12:24:30;99215.03;;;5.57;100.00
57068;BME280;43391;47.448;18.904;2023-12-20T12:26:57;99221.28;;;5.25;100.00
57068;BME280;43391;47.448;18.904;2023-12-20T12:29:22;99208.94;;;5.09;100.00
57068;BME280;43391;47.448;18.904;2023-12-20T12:31:49;99204.44;;;4.90;100.00
57068;BME280;43391;47.448;18.904;2023-12-20T12:34:14;99215.00;;;4.83;100.00
57068;BME280;43391;47.448;18.904;2023-12-20T12:36:41;99212.66;;;4.75;100.00
57068;BME280;43391;47.448;18.904;2023-12-20T12:39:06;99213.09;;;4.61;100.00
57068;BME280;43391;47.448;18.904;2023-12-20T12:41:31;99216.75;;;4.54;100.00